sensor_id;sensor_type;location;lat;lon;timestamp;pressure;altitude;pressure_sealevel;temperature;humidity
74370;BME280;71062;44.520;11.342;2023-09-07T00:00:48;101581.28;;;20.97;63.25
74370;BME280;71062;44.520;11.342;2023-09-07T00:03:14;101575.19;;;20.90;63.59
74370;BME280;71062;44.520;11.342;2023-09-07T00:05:40;101574.34;;;20.89;63.55
74370;BME280;71062;44.520;11.342;2023-09-07T00:08:06;101567.59;;;20.85;63.59
74370;BME280;71062;44.520;11.342;2023-09-07T00:10:34;101563.38;;;20.83;63.73
74370;BME280;71062;44.520;11.342;2023-09-07T00:13:03;101567.41;;;20.82;63.79
74370;BME280;71062;44.520;11.342;2023-09-07T00:15:30;101565.06;;;20.84;63.66
74370;BME280;71062;44.520;11.342;2023-09-07T00:17:56;101566.59;;;20.81;63.74
74370;BME280;71062;44.520;11.342;2023-09-07T00:20:22;101572.94;;;20.78;63.71
74370;BME280;71062;44.520;11.342;2023-09-07T00:22:49;101568.41;;;20.77;64.57
74370;BME280;71062;44.520;11.342;2023-09-07T00:25:14;101560.88;;;20.81;63.76
74370;BME280;71062;44.520;11.342;2023-09-07T00:27:40;101563.03;;;20.76;64.11
74370;BME280;71062;44.520;11.342;2023-09-07T00:30:05;101566.22;;;20.74;64.13
74370;BME280;71062;44.520;11.342;2023-09-07T00:32:32;101562.69;;;20.77;64.10
74370;BME280;71062;44.520;11.342;2023-09-07T00:34:59;101554.25;;;20.72;64.13
74370;BME280;71062;44.520;11.342;2023-09-07T00:37:24;101556.94;;;20.69;64.30
74370;BME280;71062;44.520;11.342;2023-09-07T00:39:50;101556.47;;;20.45;65.62
74370;BME280;71062;44.520;11.342;2023-09-07T00:42:17;101539.72;;;20.52;65.08
74370;BME280;71062;44.520;11.342;2023-09-07T00:44:43;101561.25;;;20.27;66.04
74370;BME280;71062;44.520;11.342;2023-09-07T00:47:09;101562.53;;;20.21;66.62
74370;BME280;71062;44.520;11.342;2023-09-07T00:49:34;101561.34;;;20.44;66.23
74370;BME280;71062;44.520;11.342;2023-09-07T00:52:00;101561.03;;;20.24;67.25
74370;BME280;71062;44.520;11.342;2023-09-07T00:54:25;101564.69;;;20.02;68.62
74370;BME280;71062;44.520;11.342;2023-09-07T00:56:51;101566.25;;;19.86;69.33
74370;BME280;71062;44.520;11.342;2023-09-07T00:59:16;101567.34;;;19.76;69.55
74370;BME280;71062;44.520;11.342;2023-09-07T01:01:42;101561.78;;;19.58;69.93
74370;BME280;71062;44.520;11.342;2023-09-07T01:04:08;101565.13;;;19.38;70.60
74370;BME280;71062;44.520;11.342;2023-09-07T01:06:39;101564.25;;;19.51;70.76
74370;BME280;71062;44.520;11.342;2023-09-07T01:09:19;101583.19;;;19.47;70.92
74370;BME280;71062;44.520;11.342;2023-09-07T01:11:47;101580.72;;;19.40;71.07
74370;BME280;71062;44.520;11.342;2023-09-07T01:14:13;101585.63;;;19.40;70.94
74370;BME280;71062;44.520;11.342;2023-09-07T01:16:38;101572.28;;;19.22;71.70
74370;BME280;71062;44.520;11.342;2023-09-07T01:19:07;101573.75;;;19.19;71.88
74370;BME280;71062;44.520;11.342;2023-09-07T01:21:36;101577.78;;;19.18;72.17
74370;BME280;71062;44.520;11.342;2023-09-07T01:24:04;101579.25;;;19.29;71.57
74370;BME280;71062;44.520;11.342;2023-09-07T01:26:31;101577.78;;;19.32;71.14
74370;BME280;71062;44.520;11.342;2023-09-07T01:28:57;101583.91;;;19.39;70.95
74370;BME280;71062;44.520;11.342;2023-09-07T01:31:22;101587.28;;;19.41;70.98
74370;BME280;71062;44.520;11.342;2023-09-07T01:33:48;101580.31;;;19.47;70.74
74370;BME280;71062;44.520;11.342;2023-09-07T01:36:13;101577.88;;;19.40;70.38
74370;BME280;71062;44.520;11.342;2023-09-07T01:38:39;101578.84;;;19.36;70.59
74370;BME280;71062;44.520;11.342;2023-09-07T01:41:04;101572.19;;;19.40;70.41
74370;BME280;71062;44.520;11.342;2023-09-07T01:43:30;101572.09;;;19.32;70.65
74370;BME280;71062;44.520;11.342;2023-09-07T01:45:55;101580.53;;;19.37;70.37
74370;BME280;71062;44.520;11.342;2023-09-07T01:48:21;101565.00;;;19.43;70.00
74370;BME280;71062;44.520;11.342;2023-09-07T01:50:46;101564.25;;;19.51;69.66
74370;BME280;71062;44.520;11.342;2023-09-07T01:53:12;101557.91;;;19.54;69.22
74370;BME280;71062;44.520;11.342;2023-09-07T01:55:37;101562.31;;;19.60;69.03
74370;BME280;71062;44.520;11.342;2023-09-07T01:58:03;101564.66;;;19.58;69.18
74370;BME280;71062;44.520;11.342;2023-09-07T02:00:28;101553.88;;;19.55;69.24
74370;BME280;71062;44.520;11.342;2023-09-07T02:02:55;101555.19;;;19.49;68.95
74370;BME280;71062;44.520;11.342;2023-09-07T02:05:20;101554.53;;;19.52;68.95
74370;BME280;71062;44.520;11.342;2023-09-07T02:07:46;101549.25;;;19.59;68.69
74370;BME280;71062;44.520;11.342;2023-09-07T02:10:14;101555.34;;;19.66;68.38
74370;BME280;71062;44.520;11.342;2023-09-07T02:12:40;101558.81;;;19.63;68.20
74370;BME280;71062;44.520;11.342;2023-09-07T02:15:06;101552.81;;;19.64;68.14
74370;BME280;71062;44.520;11.342;2023-09-07T02:17:33;101551.97;;;19.64;68.11
74370;BME280;71062;44.520;11.342;2023-09-07T02:19:59;101557.16;;;19.62;68.10
74370;BME280;71062;44.520;11.342;2023-09-07T02:22:24;101561.03;;;19.66;68.04
74370;BME280;71062;44.520;11.342;2023-09-07T02:24:50;101560.41;;;19.69;67.88
74370;BME280;71062;44.520;11.342;2023-09-07T02:27:16;101561.66;;;19.63;68.06
74370;BME280;71062;44.520;11.342;2023-09-07T02:29:41;101554.28;;;19.62;68.26
74370;BME280;71062;44.520;11.342;2023-09-07T02:32:07;101547.13;;;19.64;68.07
74370;BME280;71062;44.520;11.342;2023-09-07T02:34:34;101551.16;;;19.50;69.76
74370;BME280;71062;44.520;11.342;2023-09-07T02:37:02;101548.38;;;19.58;69.12
74370;BME280;71062;44.520;11.342;2023-09-07T02:39:28;101554.78;;;19.42;69.08
74370;BME280;71062;44.520;11.342;2023-09-07T02:41:54;101563.41;;;19.37;69.74
74370;BME280;71062;44.520;11.342;2023-09-07T02:44:19;101552.56;;;19.39;69.79
74370;BME280;71062;44.520;11.342;2023-09-07T02:46:45;101555.59;;;19.29;70.85
74370;BME280;71062;44.520;11.342;2023-09-07T02:49:10;101550.31;;;19.49;69.03
74370;BME280;71062;44.520;11.342;2023-09-07T02:51:36;101555.41;;;19.39;69.99
74370;BME280;71062;44.520;11.342;2023-09-07T02:54:02;101558.56;;;19.37;69.51
74370;BME280;71062;44.520;11.342;2023-09-07T02:56:28;101552.44;;;19.44;69.13
74370;BME280;71062;44.520;11.342;2023-09-07T02:58:54;101551.41;;;19.40;69.82
74370;BME280;71062;44.520;11.342;2023-09-07T03:01:19;101559.84;;;19.18;70.11
74370;BME280;71062;44.520;11.342;2023-09-07T03:03:46;101543.03;;;19.30;69.80
74370;BME280;71062;44.520;11.342;2023-09-07T03:06:15;101558.91;;;19.36;70.43
74370;BME280;71062;44.520;11.342;2023-09-07T03:08:44;101551.41;;;19.13;71.48
74370;BME280;71062;44.520;11.342;2023-09-07T03:11:10;101552.66;;;19.20;70.26
74370;BME280;71062;44.520;11.342;2023-09-07T03:13:36;101552.22;;;19.27;69.99
74370;BME280;71062;44.520;11.342;2023-09-07T03:16:03;101559.09;;;19.26;70.08
74370;BME280;71062;44.520;11.342;2023-09-07T03:18:30;101558.38;;;19.07;70.98
74370;BME280;71062;44.520;11.342;2023-09-07T03:20:58;101556.88;;;19.23;70.79
74370;BME280;71062;44.520;11.342;2023-09-07T03:23:24;101568.38;;;19.18;70.43
74370;BME280;71062;44.520;11.342;2023-09-07T03:25:50;101563.22;;;19.20;70.02
74370;BME280;71062;44.520;11.342;2023-09-07T03:28:15;101564.28;;;19.24;70.03
74370;BME280;71062;44.520;11.342;2023-09-07T03:30:41;101563.56;;;19.05;70.63
74370;BME280;71062;44.520;11.342;2023-09-07T03:33:06;101559.84;;;19.18;70.43
74370;BME280;71062;44.520;11.342;2023-09-07T03:35:32;101564.38;;;19.19;70.62
74370;BME280;71062;44.520;11.342;2023-09-07T03:37:58;101568.50;;;19.13;70.61
74370;BME280;71062;44.520;11.342;2023-09-07T03:40:24;101557.84;;;18.77;72.33
74370;BME280;71062;44.520;11.342;2023-09-07T03:42:49;101570.09;;;18.78;72.78
74370;BME280;71062;44.520;11.342;2023-09-07T03:45:15;101571.25;;;18.90;71.74
74370;BME280;71062;44.520;11.342;2023-09-07T03:47:41;101562.59;;;18.96;71.03
74370;BME280;71062;44.520;11.342;2023-09-07T03:50:08;101568.94;;;18.92;71.66
74370;BME280;71062;44.520;11.342;2023-09-07T03:52:33;101572.94;;;18.78;72.28
74370;BME280;71062;44.520;11.342;2023-09-07T03:54:59;101576.97;;;18.77;72.54
74370;BME280;71062;44.520;11.342;2023-09-07T03:57:25;101575.56;;;18.74;73.32
74370;BME280;71062;44.520;11.342;2023-09-07T03:59:52;101579.06;;;18.71;72.80
74370;BME280;71062;44.520;11.342;2023-09-07T04:02:18;101577.78;;;18.77;72.69
74370;BME280;71062;44.520;11.342;2023-09-07T04:04:48;101588.41;;;18.58;73.64
74370;BME280;71062;44.520;11.342;2023-09-07T04:07:14;101577.16;;;18.80;72.51
74370;BME280;71062;44.520;11.342;2023-09-07T04:09:42;101582.88;;;18.80;71.82
74370;BME280;71062;44.520;11.342;2023-09-07T04:12:11;101577.16;;;18.80;71.77
74370;BME280;71062;44.520;11.342;2023-09-07T04:14:37;101578.63;;;18.78;72.46
74370;BME280;71062;44.520;11.342;2023-09-07T04:17:04;101580.94;;;18.76;71.69
74370;BME280;71062;44.520;11.342;2023-09-07T04:19:29;101574.81;;;18.82;71.73
74370;BME280;71062;44.520;11.342;2023-09-07T04:21:56;101575.47;;;18.79;71.32
74370;BME280;71062;44.520;11.342;2023-09-07T04:24:21;101577.59;;;18.87;71.05
74370;BME280;71062;44.520;11.342;2023-09-07T04:26:47;101579.50;;;18.78;71.34
74370;BME280;71062;44.520;11.342;2023-09-07T04:29:13;101589.16;;;18.77;71.56
74370;BME280;71062;44.520;11.342;2023-09-07T04:31:39;101582.81;;;18.67;72.16
74370;BME280;71062;44.520;11.342;2023-09-07T04:34:04;101593.41;;;18.66;72.44
74370;BME280;71062;44.520;11.342;2023-09-07T04:36:30;101588.84;;;18.79;71.43
74370;BME280;71062;44.520;11.342;2023-09-07T04:38:55;101581.38;;;18.69;71.62
74370;BME280;71062;44.520;11.342;2023-09-07T04:41:21;101594.00;;;18.63;71.63
74370;BME280;71062;44.520;11.342;2023-09-07T04:43:46;101584.41;;;18.59;71.90
74370;BME280;71062;44.520;11.342;2023-09-07T04:46:13;101585.78;;;18.62;71.56
74370;BME280;71062;44.520;11.342;2023-09-07T04:48:39;101588.75;;;18.70;71.58
74370;BME280;71062;44.520;11.342;2023-09-07T04:51:07;101589.81;;;18.74;71.32
74370;BME280;71062;44.520;11.342;2023-09-07T04:53:35;101582.34;;;18.78;71.36
74370;BME280;71062;44.520;11.342;2023-09-07T04:56:02;101601.63;;;18.81;71.34
74370;BME280;71062;44.520;11.342;2023-09-07T04:58:28;101588.56;;;18.80;71.15
74370;BME280;71062;44.520;11.342;2023-09-07T05:00:54;101593.84;;;18.73;71.59
74370;BME280;71062;44.520;11.342;2023-09-07T05:03:20;101598.03;;;18.89;70.83
74370;BME280;71062;44.520;11.342;2023-09-07T05:05:51;101591.31;;;18.85;71.37
74370;BME280;71062;44.520;11.342;2023-09-07T05:08:17;101596.91;;;18.90;71.35
74370;BME280;71062;44.520;11.342;2023-09-07T05:10:42;101593.84;;;19.01;71.15
74370;BME280;71062;44.520;11.342;2023-09-07T05:13:08;101598.88;;;19.04;71.14
74370;BME280;71062;44.520;11.342;2023-09-07T05:15:33;101595.94;;;18.95;71.07
74370;BME280;71062;44.520;11.342;2023-09-07T05:17:59;101597.44;;;19.06;71.01
74370;BME280;71062;44.520;11.342;2023-09-07T05:20:24;101599.63;;;18.96;71.70
74370;BME280;71062;44.520;11.342;2023-09-07T05:22:52;101608.59;;;19.03;71.25
74370;BME280;71062;44.520;11.342;2023-09-07T05:25:18;101609.47;;;19.03;71.69
74370;BME280;71062;44.520;11.342;2023-09-07T05:27:45;101601.63;;;19.09;71.77
74370;BME280;71062;44.520;11.342;2023-09-07T05:30:11;101601.22;;;19.15;72.76
74370;BME280;71062;44.520;11.342;2023-09-07T05:32:36;101601.22;;;19.29;71.34
74370;BME280;71062;44.520;11.342;2023-09-07T05:35:02;101609.22;;;19.27;71.52
74370;BME280;71062;44.520;11.342;2023-09-07T05:37:27;101618.75;;;19.36;70.63
74370;BME280;71062;44.520;11.342;2023-09-07T05:39:53;101615.56;;;19.24;70.74
74370;BME280;71062;44.520;11.342;2023-09-07T05:42:22;101627.84;;;19.38;70.77
74370;BME280;71062;44.520;11.342;2023-09-07T05:44:48;101631.63;;;19.33;72.70
74370;BME280;71062;44.520;11.342;2023-09-07T05:47:13;101623.94;;;19.34;71.48
74370;BME280;71062;44.520;11.342;2023-09-07T05:49:39;101630.47;;;19.21;72.17
74370;BME280;71062;44.520;11.342;2023-09-07T05:52:04;101629.19;;;19.40;70.38
74370;BME280;71062;44.520;11.342;2023-09-07T05:54:30;101635.34;;;19.34;70.67
74370;BME280;71062;44.520;11.342;2023-09-07T05:56:55;101632.03;;;19.27;70.91
74370;BME280;71062;44.520;11.342;2023-09-07T05:59:21;101653.06;;;19.17;72.26
74370;BME280;71062;44.520;11.342;2023-09-07T06:01:46;101646.22;;;19.32;72.01
74370;BME280;71062;44.520;11.342;2023-09-07T06:04:12;101647.69;;;19.43;71.05
74370;BME280;71062;44.520;11.342;2023-09-07T06:06:38;101652.34;;;19.39;71.56
74370;BME280;71062;44.520;11.342;2023-09-07T06:09:04;101654.66;;;19.50;71.38
74370;BME280;71062;44.520;11.342;2023-09-07T06:11:29;101655.28;;;19.61;71.15
74370;BME280;71062;44.520;11.342;2023-09-07T06:13:57;101649.78;;;19.51;70.33
74370;BME280;71062;44.520;11.342;2023-09-07T06:16:23;101649.59;;;19.61;70.13
74370;BME280;71062;44.520;11.342;2023-09-07T06:18:49;101644.91;;;19.65;70.21
74370;BME280;71062;44.520;11.342;2023-09-07T06:21:14;101643.00;;;19.74;69.59
74370;BME280;71062;44.520;11.342;2023-09-07T06:23:40;101641.06;;;19.83;69.11
74370;BME280;71062;44.520;11.342;2023-09-07T06:26:06;101637.03;;;19.84;69.70
74370;BME280;71062;44.520;11.342;2023-09-07T06:28:31;101636.81;;;19.94;69.22
74370;BME280;71062;44.520;11.342;2023-09-07T06:30:57;101642.16;;;20.09;68.54
74370;BME280;71062;44.520;11.342;2023-09-07T06:33:22;101645.44;;;20.16;69.35
74370;BME280;71062;44.520;11.342;2023-09-07T06:35:47;101642.25;;;20.18;68.46
74370;BME280;71062;44.520;11.342;2023-09-07T06:38:13;101647.50;;;20.24;68.95
74370;BME280;71062;44.520;11.342;2023-09-07T06:40:38;101642.16;;;20.45;68.19
74370;BME280;71062;44.520;11.342;2023-09-07T06:43:04;101646.34;;;20.47;68.11
74370;BME280;71062;44.520;11.342;2023-09-07T06:45:37;101643.75;;;20.59;68.86
74370;BME280;71062;44.520;11.342;2023-09-07T06:48:03;101646.84;;;20.71;67.67
74370;BME280;71062;44.520;11.342;2023-09-07T06:50:29;101653.31;;;20.85;66.76
74370;BME280;71062;44.520;11.342;2023-09-07T06:52:54;101645.16;;;20.70;67.14
74370;BME280;71062;44.520;11.342;2023-09-07T06:55:20;101651.78;;;20.79;67.12
74370;BME280;71062;44.520;11.342;2023-09-07T06:57:45;101640.88;;;20.81;67.66
74370;BME280;71062;44.520;11.342;2023-09-07T07:00:11;101652.44;;;20.76;66.97
74370;BME280;71062;44.520;11.342;2023-09-07T07:02:37;101649.16;;;20.91;67.27
74370;BME280;71062;44.520;11.342;2023-09-07T07:05:04;101647.34;;;20.95;68.09
74370;BME280;71062;44.520;11.342;2023-09-07T07:07:29;101645.41;;;21.04;67.46
74370;BME280;71062;44.520;11.342;2023-09-07T07:09:55;101646.63;;;21.21;66.81
74370;BME280;71062;44.520;11.342;2023-09-07T07:12:21;101637.06;;;21.17;67.09
74370;BME280;71062;44.520;11.342;2023-09-07T07:14:46;101643.03;;;21.46;67.47
74370;BME280;71062;44.520;11.342;2023-09-07T07:17:12;101646.38;;;21.39;66.88
74370;BME280;71062;44.520;11.342;2023-09-07T07:19:37;101653.66;;;21.54;69.23
74370;BME280;71062;44.520;11.342;2023-09-07T07:22:03;101660.44;;;21.75;66.72
74370;BME280;71062;44.520;11.342;2023-09-07T07:24:29;101659.00;;;22.03;65.12
74370;BME280;71062;44.520;11.342;2023-09-07T07:26:54;101659.50;;;22.05;65.55
74370;BME280;71062;44.520;11.342;2023-09-07T07:29:20;101667.94;;;22.10;65.55
74370;BME280;71062;44.520;11.342;2023-09-07T07:31:45;101676.34;;;22.15;66.36
74370;BME280;71062;44.520;11.342;2023-09-07T07:34:11;101668.78;;;22.19;65.69
74370;BME280;71062;44.520;11.342;2023-09-07T07:36:36;101672.16;;;22.04;67.03
74370;BME280;71062;44.520;11.342;2023-09-07T07:39:03;101674.34;;;22.24;67.19
74370;BME280;71062;44.520;11.342;2023-09-07T07:41:29;101673.34;;;22.37;66.37
74370;BME280;71062;44.520;11.342;2023-09-07T07:43:54;101666.56;;;22.50;65.87
74370;BME280;71062;44.520;11.342;2023-09-07T07:46:20;101664.22;;;22.69;65.15
74370;BME280;71062;44.520;11.342;2023-09-07T07:48:45;101665.09;;;22.44;65.60
74370;BME280;71062;44.520;11.342;2023-09-07T07:51:10;101665.06;;;22.70;65.69
74370;BME280;71062;44.520;11.342;2023-09-07T07:53:36;101666.91;;;22.74;65.96
74370;BME280;71062;44.520;11.342;2023-09-07T07:56:01;101662.22;;;22.61;67.61
74370;BME280;71062;44.520;11.342;2023-09-07T07:58:28;101668.81;;;22.62;67.64
74370;BME280;71062;44.520;11.342;2023-09-07T08:00:54;101664.72;;;22.71;67.61
74370;BME280;71062;44.520;11.342;2023-09-07T08:03:23;101663.13;;;22.99;67.22
74370;BME280;71062;44.520;11.342;2023-09-07T08:05:48;101665.47;;;23.14;67.07
74370;BME280;71062;44.520;11.342;2023-09-07T08:08:14;101659.31;;;23.42;66.12
74370;BME280;71062;44.520;11.342;2023-09-07T08:10:39;101665.16;;;23.54;64.62
74370;BME280;71062;44.520;11.342;2023-09-07T08:13:07;101663.38;;;23.41;64.35
74370;BME280;71062;44.520;11.342;2023-09-07T08:15:33;101678.34;;;23.46;65.36
74370;BME280;71062;44.520;11.342;2023-09-07T08:17:59;101678.22;;;23.25;66.47
74370;BME280;71062;44.520;11.342;2023-09-07T08:20:25;101683.72;;;23.56;65.33
74370;BME280;71062;44.520;11.342;2023-09-07T08:22:51;101681.50;;;23.62;65.35
74370;BME280;71062;44.520;11.342;2023-09-07T08:25:18;101672.75;;;23.50;64.83
74370;BME280;71062;44.520;11.342;2023-09-07T08:27:44;101679.09;;;23.64;64.57
74370;BME280;71062;44.520;11.342;2023-09-07T08:30:16;101667.28;;;23.94;63.95
74370;BME280;71062;44.520;11.342;2023-09-07T08:32:43;101670.13;;;24.23;63.61
74370;BME280;71062;44.520;11.342;2023-09-07T08:35:10;101671.44;;;24.05;63.74
74370;BME280;71062;44.520;11.342;2023-09-07T08:37:41;101667.16;;;24.11;63.58
74370;BME280;71062;44.520;11.342;2023-09-07T08:40:07;101663.66;;;24.06;63.52
74370;BME280;71062;44.520;11.342;2023-09-07T08:42:35;101658.25;;;24.25;63.07
74370;BME280;71062;44.520;11.342;2023-09-07T08:45:05;101653.28;;;24.34;62.08
74370;BME280;71062;44.520;11.342;2023-09-07T08:47:34;101655.38;;;24.25;62.68
74370;BME280;71062;44.520;11.342;2023-09-07T08:50:02;101646.22;;;24.32;61.70
74370;BME280;71062;44.520;11.342;2023-09-07T08:52:29;101658.19;;;24.54;61.91
74370;BME280;71062;44.520;11.342;2023-09-07T08:54:56;101650.63;;;24.29;62.08
74370;BME280;71062;44.520;11.342;2023-09-07T08:57:24;101656.09;;;24.63;61.78
74370;BME280;71062;44.520;11.342;2023-09-07T08:59:50;101664.91;;;24.58;62.11
74370;BME280;71062;44.520;11.342;2023-09-07T09:02:16;101635.59;;;24.44;61.94
74370;BME280;71062;44.520;11.342;2023-09-07T09:04:42;101659.03;;;24.75;61.15
74370;BME280;71062;44.520;11.342;2023-09-07T09:07:07;101653.34;;;24.99;61.14
74370;BME280;71062;44.520;11.342;2023-09-07T09:09:33;101658.03;;;25.16;60.09
74370;BME280;71062;44.520;11.342;2023-09-07T09:12:11;101650.13;;;25.13;60.71
74370;BME280;71062;44.520;11.342;2023-09-07T09:14:41;101649.75;;;25.47;60.29
74370;BME280;71062;44.520;11.342;2023-09-07T09:17:11;101651.94;;;25.17;60.40
74370;BME280;71062;44.520;11.342;2023-09-07T09:19:44;101648.66;;;25.40;59.71
74370;BME280;71062;44.520;11.342;2023-09-07T09:22:12;101646.25;;;25.54;58.93
74370;BME280;71062;44.520;11.342;2023-09-07T09:24:38;101643.84;;;25.68;59.38
74370;BME280;71062;44.520;11.342;2023-09-07T09:27:04;101655.56;;;25.38;60.86
74370;BME280;71062;44.520;11.342;2023-09-07T09:29:32;101657.84;;;25.33;61.28
74370;BME280;71062;44.520;11.342;2023-09-07T09:32:02;101652.91;;;25.33;60.57
74370;BME280;71062;44.520;11.342;2023-09-07T09:34:33;101652.59;;;25.71;60.10
74370;BME280;71062;44.520;11.342;2023-09-07T09:37:00;101650.34;;;25.65;59.70
74370;BME280;71062;44.520;11.342;2023-09-07T09:39:26;101653.09;;;25.61;60.05
74370;BME280;71062;44.520;11.342;2023-09-07T09:41:52;101649.38;;;25.73;59.61
74370;BME280;71062;44.520;11.342;2023-09-07T09:44:19;101645.25;;;25.74;60.18
74370;BME280;71062;44.520;11.342;2023-09-07T09:46:47;101644.81;;;25.84;59.77
74370;BME280;71062;44.520;11.342;2023-09-07T09:49:14;101637.31;;;26.07;58.91
74370;BME280;71062;44.520;11.342;2023-09-07T09:51:41;101633.09;;;26.56;57.46
74370;BME280;71062;44.520;11.342;2023-09-07T09:54:08;101634.47;;;26.74;56.65
74370;BME280;71062;44.520;11.342;2023-09-07T09:56:34;101639.59;;;26.53;57.91
74370;BME280;71062;44.520;11.342;2023-09-07T09:59:00;101643.53;;;26.21;58.44
74370;BME280;71062;44.520;11.342;2023-09-07T10:01:26;101634.84;;;26.33;57.44
74370;BME280;71062;44.520;11.342;2023-09-07T10:03:53;101632.75;;;26.85;56.66
74370;BME280;71062;44.520;11.342;2023-09-07T10:06:22;101626.97;;;26.85;56.25
74370;BME280;71062;44.520;11.342;2023-09-07T10:09:07;101625.28;;;26.84;55.54
74370;BME280;71062;44.520;11.342;2023-09-07T10:11:37;101623.16;;;26.81;56.09
74370;BME280;71062;44.520;11.342;2023-09-07T10:14:04;101627.63;;;26.94;55.98
74370;BME280;71062;44.520;11.342;2023-09-07T10:19:22;101614.31;;;26.62;55.32
74370;BME280;71062;44.520;11.342;2023-09-07T10:21:49;101613.94;;;26.91;54.90
74370;BME280;71062;44.520;11.342;2023-09-07T10:27:04;101594.41;;;26.85;54.00
74370;BME280;71062;44.520;11.342;2023-09-07T10:29:42;101609.28;;;26.87;53.17
74370;BME280;71062;44.520;11.342;2023-09-07T10:32:08;101604.53;;;26.94;52.65
74370;BME280;71062;44.520;11.342;2023-09-07T10:34:42;101597.50;;;27.23;52.41
74370;BME280;71062;44.520;11.342;2023-09-07T10:37:10;101607.09;;;27.11;53.05
74370;BME280;71062;44.520;11.342;2023-09-07T10:39:39;101603.72;;;27.25;51.88
74370;BME280;71062;44.520;11.342;2023-09-07T10:42:05;101593.13;;;27.60;51.57
74370;BME280;71062;44.520;11.342;2023-09-07T10:44:31;101587.44;;;27.64;51.26
74370;BME280;71062;44.520;11.342;2023-09-07T10:46:57;101575.88;;;27.64;50.45
74370;BME280;71062;44.520;11.342;2023-09-07T10:49:23;101578.03;;;27.86;50.39
74370;BME280;71062;44.520;11.342;2023-09-07T10:51:50;101585.72;;;27.94;50.06
74370;BME280;71062;44.520;11.342;2023-09-07T10:54:17;101575.38;;;28.12;50.25
74370;BME280;71062;44.520;11.342;2023-09-07T10:56:44;101568.44;;;27.82;48.77
74370;BME280;71062;44.520;11.342;2023-09-07T10:59:10;101576.56;;;27.92;48.31
74370;BME280;71062;44.520;11.342;2023-09-07T11:01:35;101562.75;;;28.01;48.05
74370;BME280;71062;44.520;11.342;2023-09-07T11:04:01;101560.91;;;28.31;48.22
74370;BME280;71062;44.520;11.342;2023-09-07T11:06:27;101565.59;;;28.54;46.85
74370;BME280;71062;44.520;11.342;2023-09-07T11:08:53;101562.81;;;28.42;45.34
74370;BME280;71062;44.520;11.342;2023-09-07T11:11:19;101561.06;;;28.38;46.43
74370;BME280;71062;44.520;11.342;2023-09-07T11:13:44;101554.00;;;28.54;46.32
74370;BME280;71062;44.520;11.342;2023-09-07T11:16:10;101562.31;;;28.56;45.64
74370;BME280;71062;44.520;11.342;2023-09-07T11:18:36;101558.03;;;28.69;46.43
74370;BME280;71062;44.520;11.342;2023-09-07T11:21:02;101550.72;;;28.56;46.34
74370;BME280;71062;44.520;11.342;2023-09-07T11:23:33;101543.84;;;29.28;44.14
74370;BME280;71062;44.520;11.342;2023-09-07T11:26:05;101551.22;;;29.75;43.12
74370;BME280;71062;44.520;11.342;2023-09-07T11:28:31;101548.47;;;30.15;42.88
74370;BME280;71062;44.520;11.342;2023-09-07T11:30:58;101552.13;;;31.11;40.00
74370;BME280;71062;44.520;11.342;2023-09-07T11:33:24;101546.88;;;31.74;39.71
74370;BME280;71062;44.520;11.342;2023-09-07T11:35:50;101553.75;;;31.05;40.18
74370;BME280;71062;44.520;11.342;2023-09-07T11:38:17;101542.28;;;29.60;43.49
74370;BME280;71062;44.520;11.342;2023-09-07T11:40:44;101553.69;;;29.73;43.30
74370;BME280;71062;44.520;11.342;2023-09-07T11:43:13;101557.84;;;30.64;40.84
74370;BME280;71062;44.520;11.342;2023-09-07T11:45:41;101546.59;;;30.26;41.09
74370;BME280;71062;44.520;11.342;2023-09-07T11:48:07;101548.09;;;31.19;40.71
74370;BME280;71062;44.520;11.342;2023-09-07T11:50:36;101537.63;;;31.58;39.33
74370;BME280;71062;44.520;11.342;2023-09-07T11:53:03;101529.06;;;30.85;40.56
74370;BME280;71062;44.520;11.342;2023-09-07T11:55:28;101529.03;;;29.86;42.95
74370;BME280;71062;44.520;11.342;2023-09-07T11:57:54;101531.38;;;30.36;41.55
74370;BME280;71062;44.520;11.342;2023-09-07T12:00:20;101523.94;;;31.12;40.42
74370;BME280;71062;44.520;11.342;2023-09-07T12:02:48;101523.38;;;31.39;40.24
74370;BME280;71062;44.520;11.342;2023-09-07T12:05:14;101517.03;;;31.30;40.45
74370;BME280;71062;44.520;11.342;2023-09-07T12:07:41;101521.88;;;31.59;39.90
74370;BME280;71062;44.520;11.342;2023-09-07T12:10:11;101514.34;;;32.27;38.55
74370;BME280;71062;44.520;11.342;2023-09-07T12:12:41;101510.31;;;31.70;39.97
74370;BME280;71062;44.520;11.342;2023-09-07T12:15:08;101490.47;;;30.81;41.47
74370;BME280;71062;44.520;11.342;2023-09-07T12:17:34;101500.47;;;29.58;44.63
74370;BME280;71062;44.520;11.342;2023-09-07T12:20:03;101514.84;;;29.25;46.23
74370;BME280;71062;44.520;11.342;2023-09-07T12:22:30;101485.50;;;29.04;45.77
74370;BME280;71062;44.520;11.342;2023-09-07T12:24:56;101495.81;;;29.80;44.57
74370;BME280;71062;44.520;11.342;2023-09-07T12:27:21;101496.91;;;30.64;42.54
74370;BME280;71062;44.520;11.342;2023-09-07T12:29:47;101492.59;;;30.47;42.32
74370;BME280;71062;44.520;11.342;2023-09-07T12:32:14;101481.06;;;31.42;40.12
74370;BME280;71062;44.520;11.342;2023-09-07T12:34:39;101478.31;;;31.66;37.58
74370;BME280;71062;44.520;11.342;2023-09-07T12:37:05;101479.00;;;32.18;35.95
74370;BME280;71062;44.520;11.342;2023-09-07T12:39:34;101479.91;;;32.36;35.88
74370;BME280;71062;44.520;11.342;2023-09-07T12:42:00;101484.25;;;31.26;34.43